Springer, Oklahoma
Current Conditions -  °F | °C
As of 5:15 AM on Sunday 21 Dec 2014 (Local Time) from KADM Reporting Station
Haze Haze  
Wind Chill: 43°   Ceiling: 900
Heat Index: 46°   Visibility: 3mi
Dew Point: 46°   Wind: 6mph
Humidity: 97%   Direction: 140°SE
Pressure: 30.09"   Gusts: NA
Location:  34.31°N, 97.14°W
Report Text: KADM 211115Z AUTO 14005KT 3SM BR BKN009 OVC023 08/08 A3009 RMK AO2 T00790075
Loading
Personal Weather Stations






























Interactive Weather Map New forecast layout! Learn more

10-Day Weather Forecast

Advertisements
Track Severe Weather on mobile